createdAt,value
2018-09-04T00:01:56.172Z,99.90
2018-09-04T00:04:25.483Z,99.90
2018-09-04T00:06:54.318Z,99.90
2018-09-04T00:09:23.348Z,99.90
2018-09-04T00:11:52.216Z,99.90
2018-09-04T00:14:21.132Z,99.90
2018-09-04T00:16:50.837Z,99.90
2018-09-04T00:19:19.666Z,99.90
2018-09-04T00:21:48.382Z,99.90
2018-09-04T00:24:17.131Z,99.90
2018-09-04T00:26:45.963Z,99.90
2018-09-04T00:29:14.827Z,99.90
2018-09-04T00:31:43.615Z,99.90
2018-09-04T00:34:12.585Z,99.90
2018-09-04T00:36:42.356Z,99.90
2018-09-04T00:39:11.125Z,99.90
2018-09-04T00:41:39.948Z,99.90
2018-09-04T00:44:08.863Z,99.90
2018-09-04T00:46:38.589Z,99.90
2018-09-04T00:49:07.429Z,99.90
2018-09-04T00:51:36.192Z,99.90
2018-09-04T00:54:05.133Z,99.90
2018-09-04T00:56:33.885Z,99.90
2018-09-04T00:59:02.735Z,99.90
2018-09-04T01:01:31.520Z,99.90
2018-09-04T01:04:00.468Z,99.90
2018-09-04T01:06:29.344Z,99.90
2018-09-04T01:08:58.112Z,99.90
2018-09-04T01:11:27.098Z,99.90
2018-09-04T01:13:56.504Z,99.90
2018-09-04T01:16:25.321Z,99.90
2018-09-04T01:18:54.154Z,99.90
2018-09-04T01:21:23.097Z,99.90
2018-09-04T01:23:51.936Z,99.90
2018-09-04T01:26:20.882Z,99.90
2018-09-04T01:28:49.777Z,99.90
2018-09-04T01:31:18.729Z,99.90
2018-09-04T01:33:47.536Z,99.90
2018-09-04T01:36:16.357Z,99.90
2018-09-04T01:38:45.316Z,99.90
2018-09-04T01:41:14.564Z,99.90
2018-09-04T01:43:43.396Z,99.90
2018-09-04T01:46:12.386Z,99.90
2018-09-04T01:48:41.213Z,99.90
2018-09-04T01:51:10.045Z,99.90
2018-09-04T01:53:38.780Z,99.90
2018-09-04T01:56:08.259Z,99.90
2018-09-04T01:58:37.717Z,99.90
2018-09-04T02:01:06.668Z,99.90
2018-09-04T02:03:35.628Z,99.90
2018-09-04T02:06:04.510Z,99.90
2018-09-04T02:08:33.349Z,99.90
2018-09-04T02:11:02.130Z,99.90
2018-09-04T02:13:31.001Z,99.90
2018-09-04T02:15:59.905Z,99.90
2018-09-04T02:18:28.785Z,99.90
2018-09-04T02:20:57.523Z,99.90
2018-09-04T02:23:26.369Z,99.90
2018-09-04T02:25:55.128Z,99.90
2018-09-04T02:28:24.488Z,99.90
2018-09-04T02:30:53.221Z,99.90
2018-09-04T02:33:22.614Z,99.90
2018-09-04T02:35:51.516Z,99.90
2018-09-04T02:38:20.422Z,99.90
2018-09-04T02:40:49.305Z,99.90
2018-09-04T02:43:18.178Z,99.90
2018-09-04T02:45:47.029Z,99.90
2018-09-04T02:48:15.801Z,99.90
2018-09-04T02:50:44.749Z,99.90
2018-09-04T02:53:13.641Z,99.90
2018-09-04T02:55:42.698Z,99.90
2018-09-04T02:58:12.290Z,99.90
2018-09-04T03:00:41.213Z,99.90
2018-09-04T03:03:10.029Z,99.90
2018-09-04T03:05:38.974Z,99.90
2018-09-04T03:08:07.933Z,99.90
2018-09-04T03:10:36.940Z,99.90
2018-09-04T03:13:05.788Z,99.90
2018-09-04T03:15:35.348Z,99.90
2018-09-04T03:18:04.119Z,99.90
2018-09-04T03:20:33.026Z,99.90
2018-09-04T03:23:01.936Z,99.90
2018-09-04T03:25:31.551Z,99.90
2018-09-04T03:28:00.428Z,99.90
2018-09-04T03:30:29.485Z,99.90
2018-09-04T03:32:59.097Z,99.90
2018-09-04T03:35:28.464Z,99.90
2018-09-04T03:37:57.307Z,99.90
2018-09-04T03:40:26.281Z,99.90
2018-09-04T03:42:55.277Z,99.90
2018-09-04T03:45:24.148Z,99.90
2018-09-04T03:47:53.000Z,99.90
2018-09-04T03:50:21.937Z,99.90
2018-09-04T03:52:50.754Z,99.90
2018-09-04T03:55:20.361Z,99.90
2018-09-04T03:57:49.254Z,99.90
2018-09-04T04:00:18.232Z,99.90
2018-09-04T04:02:47.051Z,99.90
2018-09-04T04:05:15.834Z,99.90
2018-09-04T04:07:44.812Z,99.90
2018-09-04T04:10:13.812Z,99.90
2018-09-04T04:12:42.696Z,99.90
2018-09-04T04:15:11.621Z,99.90
2018-09-04T04:17:40.667Z,99.90
2018-09-04T04:20:09.709Z,99.90
2018-09-04T04:22:38.565Z,99.90
2018-09-04T04:25:07.459Z,99.90
2018-09-04T04:27:36.276Z,99.90
2018-09-04T04:30:05.770Z,99.90
2018-09-04T04:32:34.561Z,99.90
2018-09-04T04:35:03.649Z,99.90
2018-09-04T04:37:32.487Z,99.90
2018-09-04T04:40:01.356Z,99.90
2018-09-04T04:42:30.931Z,99.90
2018-09-04T04:45:00.501Z,99.90
2018-09-04T04:47:34.603Z,99.90
2018-09-04T04:50:03.554Z,99.90
2018-09-04T04:52:32.499Z,99.90
2018-09-04T04:55:01.341Z,99.90
2018-09-04T04:57:30.852Z,99.90
2018-09-04T04:59:59.776Z,99.90
2018-09-04T05:02:29.288Z,99.90
2018-09-04T05:04:58.728Z,99.90
2018-09-04T05:07:27.763Z,99.90
2018-09-04T05:09:56.676Z,99.90
2018-09-04T05:12:26.285Z,99.90
2018-09-04T05:14:55.093Z,99.90
2018-09-04T05:17:24.072Z,99.90
2018-09-04T05:19:53.053Z,99.90
2018-09-04T05:22:21.809Z,99.90
2018-09-04T05:24:50.676Z,99.90
2018-09-04T05:27:19.498Z,99.90
2018-09-04T05:29:48.381Z,99.90
2018-09-04T05:32:36.830Z,99.90
2018-09-04T05:35:05.968Z,99.90
2018-09-04T05:37:34.728Z,99.90
2018-09-04T05:40:05.162Z,99.90
2018-09-04T05:42:37.599Z,99.90
2018-09-04T05:45:07.538Z,99.90
2018-09-04T05:47:38.560Z,99.90
2018-09-04T05:50:08.304Z,99.90
2018-09-04T05:52:37.343Z,99.90
2018-09-04T05:55:06.344Z,99.90
2018-09-04T05:57:35.213Z,99.90
2018-09-04T06:00:07.167Z,99.90
2018-09-04T06:02:36.056Z,99.90
2018-09-04T06:05:04.860Z,99.90
2018-09-04T06:07:33.698Z,99.90
2018-09-04T06:10:02.582Z,99.90
2018-09-04T06:12:32.320Z,99.90
2018-09-04T06:15:01.081Z,99.90
2018-09-04T06:17:29.864Z,99.90
2018-09-04T06:19:58.700Z,99.90
2018-09-04T06:22:27.505Z,99.90
2018-09-04T06:24:56.261Z,99.90
2018-09-04T06:27:25.147Z,99.90
2018-09-04T06:29:54.520Z,99.90
2018-09-04T06:32:23.560Z,99.90
2018-09-04T06:34:52.528Z,99.90
2018-09-04T06:37:21.565Z,99.90
2018-09-04T06:39:50.487Z,99.90
2018-09-04T06:42:19.333Z,99.90
2018-09-04T06:44:48.309Z,99.90
2018-09-04T06:47:17.117Z,99.90
2018-09-04T06:49:45.985Z,99.90
2018-09-04T06:52:14.816Z,99.90
2018-09-04T06:54:43.640Z,99.90
2018-09-04T06:57:12.441Z,99.90
2018-09-04T06:59:41.828Z,99.90
2018-09-04T07:02:10.676Z,99.90
2018-09-04T07:04:39.421Z,99.90
2018-09-04T07:07:08.432Z,99.90
2018-09-04T07:09:37.739Z,99.90
2018-09-04T07:12:06.707Z,99.90
2018-09-04T07:14:36.275Z,99.90
2018-09-04T07:17:05.262Z,99.90
2018-09-04T07:19:34.187Z,99.90
2018-09-04T07:22:02.989Z,99.90
2018-09-04T07:24:31.844Z,99.90
2018-09-04T07:27:00.733Z,99.90
2018-09-04T07:29:29.477Z,99.90
2018-09-04T07:31:58.273Z,99.90
2018-09-04T07:34:27.122Z,99.90
2018-09-04T07:36:56.084Z,99.90
2018-09-04T07:39:24.928Z,99.90
2018-09-04T07:41:53.960Z,99.90
2018-09-04T07:44:23.446Z,99.90
2018-09-04T07:46:52.368Z,99.90
2018-09-04T07:49:21.241Z,99.90
2018-09-04T07:51:50.134Z,99.90
2018-09-04T07:54:18.961Z,99.90
2018-09-04T07:56:47.766Z,99.90
2018-09-04T07:59:18.770Z,99.90
2018-09-04T08:01:47.588Z,99.90
2018-09-04T08:04:16.502Z,99.90
2018-09-04T08:06:45.324Z,99.90
2018-09-04T08:09:14.087Z,99.90
2018-09-04T08:11:43.078Z,99.90
2018-09-04T08:14:12.571Z,99.90
2018-09-04T08:16:41.501Z,99.90
2018-09-04T08:19:10.329Z,99.90
2018-09-04T08:21:39.213Z,99.90
2018-09-04T08:24:09.069Z,99.90
2018-09-04T08:26:37.850Z,99.90
2018-09-04T08:29:06.674Z,99.90
2018-09-04T08:31:35.574Z,99.90
2018-09-04T08:34:04.672Z,99.90
2018-09-04T08:36:34.156Z,99.90
2018-09-04T08:39:03.166Z,99.90
2018-09-04T08:41:31.948Z,99.90
2018-09-04T08:44:01.726Z,99.90
2018-09-04T08:46:30.452Z,99.90
2018-09-04T08:48:59.445Z,99.90
2018-09-04T08:51:28.893Z,99.90
2018-09-04T08:53:57.737Z,99.90
2018-09-04T08:56:26.414Z,99.90
2018-09-04T08:58:55.149Z,99.90
2018-09-04T09:01:24.174Z,99.90
2018-09-04T09:03:53.107Z,99.90
2018-09-04T09:06:21.850Z,99.90
2018-09-04T09:08:50.834Z,99.90
2018-09-04T09:11:20.253Z,99.90
2018-09-04T09:13:49.000Z,99.90
2018-09-04T09:16:18.135Z,99.90
2018-09-04T09:18:47.059Z,99.90
2018-09-04T09:21:15.896Z,99.90
2018-09-04T09:23:45.001Z,99.90
2018-09-04T09:26:13.817Z,99.90
2018-09-04T09:28:42.599Z,99.90
2018-09-04T09:31:11.461Z,99.90
2018-09-04T09:33:40.276Z,99.90
2018-09-04T09:36:09.133Z,99.90
2018-09-04T09:38:37.961Z,99.30
2018-09-04T09:41:06.692Z,99.90
2018-09-04T09:46:27.843Z,96.90
2018-09-04T09:48:56.789Z,99.40
2018-09-04T09:51:26.600Z,99.90
2018-09-04T09:53:56.048Z,99.90
2018-09-04T09:56:25.051Z,99.90
2018-09-04T09:58:53.992Z,99.90
2018-09-04T10:01:28.706Z,99.90
2018-09-04T10:03:59.201Z,99.90
2018-09-04T10:06:28.485Z,99.70
2018-09-04T10:08:58.257Z,99.90
2018-09-04T10:11:27.794Z,99.90
2018-09-04T10:13:56.606Z,99.90
2018-09-04T10:16:25.414Z,99.90
2018-09-04T10:18:54.377Z,97.10
2018-09-04T10:21:23.184Z,94.70
2018-09-04T10:23:53.689Z,86.80
2018-09-04T10:26:23.492Z,85.00
2018-09-04T10:28:52.455Z,85.00
2018-09-04T10:31:21.218Z,83.00
2018-09-04T10:33:49.945Z,81.00
2018-09-04T10:36:18.836Z,82.60
2018-09-04T10:38:48.708Z,81.70
2018-09-04T10:41:17.486Z,86.60
2018-09-04T10:43:46.338Z,89.80
2018-09-04T10:46:15.701Z,90.60
2018-09-04T10:48:44.540Z,90.80
2018-09-04T10:51:13.428Z,90.70
2018-09-04T10:53:42.191Z,90.80
2018-09-04T10:56:12.233Z,89.40
2018-09-04T10:58:41.133Z,91.70
2018-09-04T11:01:09.994Z,93.70
2018-09-04T11:03:39.308Z,91.40
2018-09-04T11:06:08.192Z,87.80
2018-09-04T11:08:37.279Z,88.60
2018-09-04T11:11:06.136Z,90.60
2018-09-04T11:13:36.675Z,91.00
2018-09-04T11:16:05.533Z,89.10
2018-09-04T11:18:34.486Z,93.10
2018-09-04T11:21:03.318Z,93.80
2018-09-04T11:23:32.135Z,93.80
2018-09-04T11:26:00.898Z,94.70
2018-09-04T11:28:30.313Z,95.80
2018-09-04T11:30:59.254Z,95.60
2018-09-04T11:33:28.265Z,97.60
2018-09-04T11:35:57.203Z,97.00
2018-09-04T11:38:26.027Z,97.80
2018-09-04T11:40:55.005Z,99.00
2018-09-04T11:43:23.922Z,99.90
2018-09-04T11:45:52.769Z,99.90
2018-09-04T11:48:22.288Z,99.90
2018-09-04T11:50:51.293Z,99.90
2018-09-04T11:53:20.280Z,99.90
2018-09-04T11:55:49.835Z,99.90
2018-09-04T11:58:19.444Z,99.90
2018-09-04T12:00:49.470Z,99.90
2018-09-04T12:03:18.453Z,99.90
2018-09-04T12:05:47.878Z,99.90
2018-09-04T12:08:16.633Z,99.90
2018-09-04T12:10:45.450Z,98.70
2018-09-04T12:13:18.620Z,95.70
2018-09-04T12:15:48.146Z,96.90
2018-09-04T12:18:16.902Z,96.80
2018-09-04T12:20:52.582Z,97.00
2018-09-04T12:23:21.359Z,96.90
2018-09-04T12:25:52.349Z,95.60
2018-09-04T12:28:21.123Z,97.30
2018-09-04T12:30:50.068Z,98.30
2018-09-04T12:33:18.957Z,98.40
2018-09-04T12:35:47.744Z,97.60
2018-09-04T12:38:18.297Z,99.90
2018-09-04T12:40:47.539Z,98.10
2018-09-04T12:43:16.380Z,94.50
2018-09-04T12:45:52.741Z,93.50
2018-09-04T12:48:28.937Z,92.90
2018-09-04T12:50:59.570Z,92.80
2018-09-04T12:53:29.173Z,92.40
2018-09-04T12:55:58.600Z,87.40
2018-09-04T12:58:27.332Z,90.00
2018-09-04T13:00:56.989Z,86.00
2018-09-04T13:03:27.252Z,81.60
2018-09-04T13:05:56.756Z,86.70
2018-09-04T13:08:27.374Z,86.10
2018-09-04T13:10:56.152Z,88.00
2018-09-04T13:13:24.962Z,90.50
2018-09-04T13:15:56.820Z,91.80
2018-09-04T13:18:26.586Z,93.30
2018-09-04T13:21:03.096Z,95.10
2018-09-04T13:23:33.249Z,94.70
2018-09-04T13:26:02.501Z,96.70
2018-09-04T13:28:32.648Z,96.30
2018-09-04T13:31:01.590Z,97.00
2018-09-04T13:33:30.421Z,94.60
2018-09-04T13:35:59.203Z,93.80
2018-09-04T13:38:28.774Z,93.00
2018-09-04T13:41:02.696Z,91.80
2018-09-04T13:43:32.500Z,92.50
2018-09-04T13:46:02.000Z,92.50
2018-09-04T13:48:33.115Z,92.80
2018-09-04T13:51:02.094Z,93.40
2018-09-04T13:53:31.630Z,94.20
2018-09-04T13:56:00.411Z,94.90
2018-09-04T13:58:29.426Z,96.90
2018-09-04T14:00:58.317Z,98.10
2018-09-04T14:03:27.076Z,97.30
2018-09-04T14:05:56.602Z,96.70
2018-09-04T14:08:26.092Z,96.60
2018-09-04T14:10:54.965Z,94.10
2018-09-04T14:13:23.963Z,93.80
2018-09-04T14:16:10.897Z,92.50
2018-09-04T14:18:39.918Z,93.60
2018-09-04T14:21:08.978Z,93.10
2018-09-04T14:23:38.053Z,92.40
2018-09-04T14:26:06.825Z,92.20
2018-09-04T14:28:42.688Z,91.60
2018-09-04T14:31:04.745Z,92.30
2018-09-04T14:33:33.764Z,91.60
2018-09-04T14:36:02.750Z,88.90
2018-09-04T14:38:31.573Z,92.10
2018-09-04T14:41:01.035Z,90.60
2018-09-04T14:43:30.989Z,91.20
2018-09-04T14:45:59.940Z,91.00
2018-09-04T14:48:28.934Z,92.10
2018-09-04T14:51:04.624Z,92.50
2018-09-04T14:53:34.532Z,92.20
2018-09-04T14:56:13.348Z,92.20
2018-09-04T14:58:42.324Z,89.30
2018-09-04T15:01:11.825Z,91.50
2018-09-04T15:03:40.747Z,91.70
2018-09-04T15:06:09.581Z,90.70
2018-09-04T15:08:38.482Z,90.80
2018-09-04T15:11:07.288Z,88.70
2018-09-04T15:13:40.165Z,91.60
2018-09-04T15:16:08.961Z,91.80
2018-09-04T15:18:37.782Z,91.80
2018-09-04T15:21:07.181Z,92.80
2018-09-04T15:23:36.132Z,93.10
2018-09-04T15:26:04.908Z,92.40
2018-09-04T15:28:34.068Z,93.30
2018-09-04T15:31:03.538Z,93.50
2018-09-04T15:33:33.350Z,94.60
2018-09-04T15:36:02.533Z,92.30
2018-09-04T15:38:32.344Z,93.80
2018-09-04T15:41:01.288Z,94.20
2018-09-04T15:43:30.292Z,93.50
2018-09-04T15:45:59.816Z,93.30
2018-09-04T15:48:28.673Z,92.30
2018-09-04T15:50:57.532Z,94.10
2018-09-04T15:53:26.478Z,93.70
2018-09-04T15:55:55.323Z,94.00
2018-09-04T15:58:25.684Z,95.10
2018-09-04T16:00:54.420Z,95.50
2018-09-04T16:03:23.256Z,95.30
2018-09-04T16:06:11.045Z,94.50
2018-09-04T16:08:40.495Z,94.50
2018-09-04T16:11:09.333Z,95.20
2018-09-04T16:13:38.208Z,95.90
2018-09-04T16:16:07.133Z,95.80
2018-09-04T16:18:36.237Z,96.50
2018-09-04T16:21:05.221Z,96.90
2018-09-04T16:23:34.971Z,97.20
2018-09-04T16:26:21.539Z,97.50
2018-09-04T16:28:50.356Z,97.70
2018-09-04T16:31:31.670Z,97.40
2018-09-04T16:34:00.577Z,97.90
2018-09-04T16:36:30.465Z,97.60
2018-09-04T16:39:37.151Z,98.10
2018-09-04T16:42:05.768Z,98.50
2018-09-04T16:44:34.560Z,98.60
2018-09-04T16:47:03.436Z,99.20
2018-09-04T16:49:32.025Z,99.90
2018-09-04T16:52:01.164Z,99.90
2018-09-04T16:54:30.064Z,99.90
2018-09-04T16:56:59.425Z,99.90
2018-09-04T16:59:28.240Z,99.90
2018-09-04T17:01:57.097Z,99.90
2018-09-04T17:04:25.893Z,99.90
2018-09-04T17:06:55.374Z,99.90
2018-09-04T17:09:24.198Z,99.90
2018-09-04T17:11:52.941Z,99.90
2018-09-04T17:14:21.918Z,99.90
2018-09-04T17:16:50.980Z,99.90
2018-09-04T17:19:20.688Z,99.90
2018-09-04T17:22:08.056Z,99.90
2018-09-04T17:24:37.111Z,99.90
2018-09-04T17:27:06.702Z,99.90
2018-09-04T17:29:38.047Z,99.90
2018-09-04T17:32:07.679Z,99.90
2018-09-04T17:34:36.545Z,99.90
2018-09-04T17:37:05.454Z,99.90
2018-09-04T17:39:34.408Z,99.90
2018-09-04T17:42:03.291Z,99.90
2018-09-04T17:44:32.277Z,99.90
2018-09-04T17:47:01.170Z,99.90
2018-09-04T17:49:30.084Z,99.90
2018-09-04T17:51:59.102Z,99.90
2018-09-04T17:54:28.441Z,99.90
2018-09-04T17:56:57.334Z,99.90
2018-09-04T17:59:26.264Z,99.90
2018-09-04T18:01:55.356Z,99.90
2018-09-04T18:04:24.973Z,99.90
2018-09-04T18:06:54.589Z,99.90
2018-09-04T18:09:43.554Z,99.90
2018-09-04T18:12:12.981Z,99.90
2018-09-04T18:20:30.634Z,99.90
2018-09-04T18:23:00.165Z,99.90
2018-09-04T18:25:29.669Z,99.90
2018-09-04T18:27:59.246Z,99.90
2018-09-04T18:30:28.165Z,99.90
2018-09-04T18:32:57.033Z,99.90
2018-09-04T18:35:25.993Z,99.90
2018-09-04T18:37:54.991Z,99.90
2018-09-04T18:40:23.917Z,99.90
2018-09-04T18:42:52.694Z,99.90
2018-09-04T18:45:48.645Z,99.90
2018-09-04T18:48:18.173Z,99.90
2018-09-04T18:50:48.634Z,99.90
2018-09-04T18:53:19.537Z,99.90
2018-09-04T18:55:53.488Z,99.90
2018-09-04T18:58:27.309Z,99.90
2018-09-04T19:00:56.138Z,99.90
2018-09-04T19:03:25.062Z,99.90
2018-09-04T19:05:54.240Z,99.90
2018-09-04T19:08:23.217Z,99.90
2018-09-04T19:10:51.994Z,99.90
2018-09-04T19:13:20.922Z,99.90
2018-09-04T19:15:49.889Z,99.90
2018-09-04T19:18:18.602Z,99.90
2018-09-04T19:20:47.408Z,99.90
2018-09-04T19:23:16.184Z,99.90
2018-09-04T19:25:45.172Z,99.90
2018-09-04T19:28:13.923Z,99.90
2018-09-04T19:30:43.584Z,99.90
2018-09-04T19:33:12.505Z,99.90
2018-09-04T19:35:41.345Z,99.90
2018-09-04T19:38:10.894Z,99.90
2018-09-04T19:40:39.684Z,99.90
2018-09-04T19:43:08.489Z,99.90
2018-09-04T19:45:37.508Z,99.90
2018-09-04T19:48:06.718Z,99.90
2018-09-04T19:50:35.637Z,99.90
2018-09-04T19:53:04.534Z,99.90
2018-09-04T19:55:33.784Z,99.90
2018-09-04T19:58:02.608Z,99.90
2018-09-04T20:00:31.977Z,99.90
2018-09-04T20:03:00.869Z,99.90
2018-09-04T20:05:30.651Z,99.90
2018-09-04T20:07:59.667Z,99.90
2018-09-04T20:10:28.518Z,99.90
2018-09-04T20:12:57.625Z,99.90
2018-09-04T20:15:26.440Z,99.90
2018-09-04T20:17:55.288Z,99.90
2018-09-04T20:20:24.352Z,99.90
2018-09-04T20:22:53.232Z,99.90
2018-09-04T20:25:22.428Z,99.90
2018-09-04T20:27:51.993Z,99.90
2018-09-04T20:30:21.532Z,99.90
2018-09-04T20:32:50.419Z,99.90
2018-09-04T20:35:19.303Z,99.90
2018-09-04T20:37:48.255Z,99.90
2018-09-04T20:40:17.113Z,99.90
2018-09-04T20:42:45.979Z,99.90
2018-09-04T20:45:14.925Z,99.90
2018-09-04T20:47:44.117Z,99.90
2018-09-04T20:50:13.118Z,99.90
2018-09-04T20:52:42.585Z,99.90
2018-09-04T20:55:11.428Z,99.90
2018-09-04T20:57:40.154Z,99.90
2018-09-04T21:00:26.384Z,99.90
2018-09-04T21:03:06.105Z,99.90
2018-09-04T21:05:46.045Z,99.90
2018-09-04T21:08:25.887Z,99.90
2018-09-04T21:10:54.754Z,99.90
2018-09-04T21:13:23.573Z,99.90
2018-09-04T21:15:52.510Z,99.90
2018-09-04T21:18:21.299Z,99.90
2018-09-04T21:20:50.237Z,99.90
2018-09-04T21:23:21.240Z,99.90
2018-09-04T21:25:50.105Z,99.90
2018-09-04T21:28:19.031Z,99.90
2018-09-04T21:30:47.864Z,99.90
2018-09-04T21:33:17.349Z,99.90
2018-09-04T21:35:46.230Z,99.90
2018-09-04T21:38:15.125Z,99.90
2018-09-04T21:40:44.053Z,99.90
2018-09-04T21:43:13.116Z,99.90
2018-09-04T21:45:42.137Z,99.90
2018-09-04T21:48:10.989Z,99.90
2018-09-04T21:50:40.835Z,99.90
2018-09-04T21:53:09.702Z,99.90
2018-09-04T21:55:39.251Z,99.90
2018-09-04T21:58:08.220Z,99.90
2018-09-04T22:00:37.521Z,99.90
2018-09-04T22:03:06.348Z,99.90
2018-09-04T22:05:35.289Z,99.90
2018-09-04T22:08:04.273Z,99.90
2018-09-04T22:10:33.245Z,99.90
2018-09-04T22:13:02.149Z,99.90
2018-09-04T22:15:31.690Z,99.90
2018-09-04T22:18:01.350Z,99.90
2018-09-04T22:20:30.161Z,99.90
2018-09-04T22:22:59.084Z,99.90
2018-09-04T22:25:28.433Z,99.90
2018-09-04T22:27:57.548Z,99.90
2018-09-04T22:30:27.480Z,99.90
2018-09-04T22:32:56.947Z,99.90
2018-09-04T22:35:25.856Z,99.90
2018-09-04T22:37:54.770Z,99.90
2018-09-04T22:40:23.631Z,99.90
2018-09-04T22:42:52.457Z,99.90
2018-09-04T22:45:21.414Z,99.90
2018-09-04T22:47:50.295Z,99.90
2018-09-04T22:50:24.384Z,99.90
2018-09-04T22:52:53.170Z,99.90
2018-09-04T22:55:22.144Z,99.90
2018-09-04T22:57:51.127Z,99.90
2018-09-04T23:00:20.900Z,99.90
2018-09-04T23:02:50.234Z,99.90
2018-09-04T23:05:19.736Z,99.90
2018-09-04T23:07:49.208Z,99.90
2018-09-04T23:10:18.992Z,99.90
2018-09-04T23:12:47.769Z,99.90
2018-09-04T23:15:16.575Z,99.90
2018-09-04T23:17:45.402Z,99.90
2018-09-04T23:20:14.670Z,99.90
2018-09-04T23:22:43.582Z,99.90
2018-09-04T23:25:13.286Z,99.90
2018-09-04T23:27:42.721Z,99.90
2018-09-04T23:30:11.577Z,99.90
2018-09-04T23:32:41.153Z,99.90
2018-09-04T23:35:09.948Z,99.90
2018-09-04T23:37:38.977Z,99.90
2018-09-04T23:40:07.803Z,99.90
2018-09-04T23:42:37.111Z,99.90
2018-09-04T23:45:06.212Z,99.90
2018-09-04T23:47:34.974Z,99.90
2018-09-04T23:50:04.440Z,99.90
2018-09-04T23:52:34.199Z,99.90
2018-09-04T23:55:03.165Z,99.90
2018-09-04T23:57:32.113Z,99.90
